sensor_id;sensor_type;location;lat;lon;timestamp;temperature;humidity
34099;DHT22;20374;49.474;10.944;2022-10-16T00:01:20;15.30;99.90
34099;DHT22;20374;49.474;10.944;2022-10-16T00:03:47;15.30;99.90
34099;DHT22;20374;49.474;10.944;2022-10-16T00:06:14;15.30;99.90
34099;DHT22;20374;49.474;10.944;2022-10-16T00:08:40;15.30;99.90
34099;DHT22;20374;49.474;10.944;2022-10-16T00:11:28;15.30;99.90
34099;DHT22;20374;49.474;10.944;2022-10-16T00:13:59;15.20;99.90
34099;DHT22;20374;49.474;10.944;2022-10-16T00:16:26;15.10;99.90
34099;DHT22;20374;49.474;10.944;2022-10-16T00:18:53;15.20;99.90
34099;DHT22;20374;49.474;10.944;2022-10-16T00:21:24;15.20;99.90
34099;DHT22;20374;49.474;10.944;2022-10-16T00:23:53;15.20;99.90
34099;DHT22;20374;49.474;10.944;2022-10-16T00:26:20;15.20;99.90
34099;DHT22;20374;49.474;10.944;2022-10-16T00:28:48;15.20;99.90
34099;DHT22;20374;49.474;10.944;2022-10-16T00:31:15;15.20;99.90
34099;DHT22;20374;49.474;10.944;2022-10-16T00:33:42;15.20;99.90
34099;DHT22;20374;49.474;10.944;2022-10-16T00:36:11;15.20;99.90
34099;DHT22;20374;49.474;10.944;2022-10-16T00:38:38;15.10;99.90
34099;DHT22;20374;49.474;10.944;2022-10-16T00:41:06;15.10;99.90
34099;DHT22;20374;49.474;10.944;2022-10-16T00:46:02;15.10;99.90
34099;DHT22;20374;49.474;10.944;2022-10-16T00:48:29;15.10;99.90
34099;DHT22;20374;49.474;10.944;2022-10-16T00:50:56;15.00;99.90
34099;DHT22;20374;49.474;10.944;2022-10-16T00:53:24;15.00;99.90
34099;DHT22;20374;49.474;10.944;2022-10-16T00:55:51;14.90;99.90
34099;DHT22;20374;49.474;10.944;2022-10-16T00:58:17;14.90;99.90
34099;DHT22;20374;49.474;10.944;2022-10-16T01:00:43;14.80;99.90
34099;DHT22;20374;49.474;10.944;2022-10-16T01:11:56;14.80;99.90
34099;DHT22;20374;49.474;10.944;2022-10-16T01:14:42;14.80;99.90
34099;DHT22;20374;49.474;10.944;2022-10-16T01:17:31;14.70;99.90
34099;DHT22;20374;49.474;10.944;2022-10-16T01:20:09;14.70;99.90
34099;DHT22;20374;49.474;10.944;2022-10-16T01:25:19;14.70;99.90
34099;DHT22;20374;49.474;10.944;2022-10-16T01:27:48;14.70;99.90
34099;DHT22;20374;49.474;10.944;2022-10-16T01:30:24;14.70;99.90
34099;DHT22;20374;49.474;10.944;2022-10-16T01:33:02;14.70;99.90
34099;DHT22;20374;49.474;10.944;2022-10-16T01:35:41;14.70;99.90
34099;DHT22;20374;49.474;10.944;2022-10-16T01:38:21;14.70;99.90
34099;DHT22;20374;49.474;10.944;2022-10-16T01:40:53;14.70;99.90
34099;DHT22;20374;49.474;10.944;2022-10-16T01:43:29;14.70;99.90
34099;DHT22;20374;49.474;10.944;2022-10-16T01:45:57;14.80;99.90
34099;DHT22;20374;49.474;10.944;2022-10-16T01:48:24;14.80;99.90
34099;DHT22;20374;49.474;10.944;2022-10-16T01:51:07;14.80;99.90
34099;DHT22;20374;49.474;10.944;2022-10-16T01:53:34;14.80;99.90
34099;DHT22;20374;49.474;10.944;2022-10-16T01:56:02;14.80;99.90
34099;DHT22;20374;49.474;10.944;2022-10-16T01:58:30;14.80;99.90
34099;DHT22;20374;49.474;10.944;2022-10-16T02:01:02;14.80;99.90
34099;DHT22;20374;49.474;10.944;2022-10-16T02:03:28;14.90;99.90
34099;DHT22;20374;49.474;10.944;2022-10-16T02:05:56;15.00;99.90
34099;DHT22;20374;49.474;10.944;2022-10-16T02:08:26;15.00;99.90
34099;DHT22;20374;49.474;10.944;2022-10-16T02:10:55;15.00;99.90
34099;DHT22;20374;49.474;10.944;2022-10-16T02:16:11;15.10;99.90
34099;DHT22;20374;49.474;10.944;2022-10-16T02:18:38;15.10;99.90
34099;DHT22;20374;49.474;10.944;2022-10-16T02:21:19;15.10;99.90
34099;DHT22;20374;49.474;10.944;2022-10-16T02:29:24;15.10;99.90
34099;DHT22;20374;49.474;10.944;2022-10-16T02:31:55;15.10;99.90
34099;DHT22;20374;49.474;10.944;2022-10-16T02:34:24;15.10;99.90
34099;DHT22;20374;49.474;10.944;2022-10-16T02:36:51;15.10;99.90
34099;DHT22;20374;49.474;10.944;2022-10-16T02:39:19;15.10;99.90
34099;DHT22;20374;49.474;10.944;2022-10-16T02:41:45;15.10;99.90
34099;DHT22;20374;49.474;10.944;2022-10-16T02:44:11;15.10;99.90
34099;DHT22;20374;49.474;10.944;2022-10-16T02:46:37;15.00;99.90
34099;DHT22;20374;49.474;10.944;2022-10-16T02:49:03;15.10;99.90
34099;DHT22;20374;49.474;10.944;2022-10-16T02:51:29;15.10;99.90
34099;DHT22;20374;49.474;10.944;2022-10-16T02:53:55;15.10;99.90
34099;DHT22;20374;49.474;10.944;2022-10-16T02:56:21;14.90;99.90
34099;DHT22;20374;49.474;10.944;2022-10-16T02:58:47;14.90;99.90
34099;DHT22;20374;49.474;10.944;2022-10-16T03:01:13;14.80;99.90
34099;DHT22;20374;49.474;10.944;2022-10-16T03:03:39;14.70;99.90
34099;DHT22;20374;49.474;10.944;2022-10-16T03:06:05;14.70;99.90
34099;DHT22;20374;49.474;10.944;2022-10-16T03:08:31;14.60;99.90
34099;DHT22;20374;49.474;10.944;2022-10-16T03:10:57;14.60;99.90
34099;DHT22;20374;49.474;10.944;2022-10-16T03:13:23;14.60;99.90
34099;DHT22;20374;49.474;10.944;2022-10-16T03:15:49;14.60;99.90
34099;DHT22;20374;49.474;10.944;2022-10-16T03:18:15;14.50;99.90
34099;DHT22;20374;49.474;10.944;2022-10-16T03:20:42;14.60;99.90
34099;DHT22;20374;49.474;10.944;2022-10-16T03:23:08;14.50;99.90
34099;DHT22;20374;49.474;10.944;2022-10-16T03:25:34;14.40;99.90
34099;DHT22;20374;49.474;10.944;2022-10-16T03:28:00;14.40;99.90
34099;DHT22;20374;49.474;10.944;2022-10-16T03:30:26;14.40;99.90
34099;DHT22;20374;49.474;10.944;2022-10-16T03:32:52;14.30;99.90
34099;DHT22;20374;49.474;10.944;2022-10-16T03:35:20;14.30;99.90
34099;DHT22;20374;49.474;10.944;2022-10-16T03:37:46;14.30;99.90
34099;DHT22;20374;49.474;10.944;2022-10-16T03:40:12;14.30;99.90
34099;DHT22;20374;49.474;10.944;2022-10-16T03:42:38;14.30;99.90
34099;DHT22;20374;49.474;10.944;2022-10-16T03:45:05;14.30;99.90
34099;DHT22;20374;49.474;10.944;2022-10-16T03:47:31;14.30;99.90
34099;DHT22;20374;49.474;10.944;2022-10-16T03:49:59;14.30;99.90
34099;DHT22;20374;49.474;10.944;2022-10-16T03:52:25;14.30;99.90
34099;DHT22;20374;49.474;10.944;2022-10-16T03:54:50;14.30;99.90
34099;DHT22;20374;49.474;10.944;2022-10-16T03:57:17;14.30;99.90
34099;DHT22;20374;49.474;10.944;2022-10-16T03:59:42;14.30;99.90
34099;DHT22;20374;49.474;10.944;2022-10-16T04:02:09;14.30;99.90
34099;DHT22;20374;49.474;10.944;2022-10-16T04:04:35;14.30;99.90
34099;DHT22;20374;49.474;10.944;2022-10-16T04:07:01;14.30;99.90
34099;DHT22;20374;49.474;10.944;2022-10-16T04:09:27;14.30;99.90
34099;DHT22;20374;49.474;10.944;2022-10-16T04:11:53;14.30;99.90
34099;DHT22;20374;49.474;10.944;2022-10-16T04:14:19;14.30;99.90
34099;DHT22;20374;49.474;10.944;2022-10-16T04:16:45;14.30;99.90
34099;DHT22;20374;49.474;10.944;2022-10-16T04:19:10;14.30;99.90
34099;DHT22;20374;49.474;10.944;2022-10-16T04:21:37;14.30;99.90
34099;DHT22;20374;49.474;10.944;2022-10-16T04:24:03;14.30;99.90
34099;DHT22;20374;49.474;10.944;2022-10-16T04:26:29;14.30;99.90
34099;DHT22;20374;49.474;10.944;2022-10-16T04:28:55;14.40;99.90
34099;DHT22;20374;49.474;10.944;2022-10-16T04:31:21;14.40;99.90
34099;DHT22;20374;49.474;10.944;2022-10-16T04:33:48;14.30;99.90
34099;DHT22;20374;49.474;10.944;2022-10-16T04:36:14;14.30;99.90
34099;DHT22;20374;49.474;10.944;2022-10-16T04:38:40;14.30;99.90
34099;DHT22;20374;49.474;10.944;2022-10-16T04:41:06;14.30;99.90
34099;DHT22;20374;49.474;10.944;2022-10-16T04:43:33;14.30;99.90
34099;DHT22;20374;49.474;10.944;2022-10-16T04:45:59;14.30;99.90
34099;DHT22;20374;49.474;10.944;2022-10-16T04:48:26;14.30;99.90
34099;DHT22;20374;49.474;10.944;2022-10-16T04:50:52;14.20;99.90
34099;DHT22;20374;49.474;10.944;2022-10-16T04:53:18;14.30;99.90
34099;DHT22;20374;49.474;10.944;2022-10-16T04:55:44;14.30;99.90
34099;DHT22;20374;49.474;10.944;2022-10-16T04:58:10;14.20;99.90
34099;DHT22;20374;49.474;10.944;2022-10-16T05:00:36;14.20;99.90
34099;DHT22;20374;49.474;10.944;2022-10-16T05:03:02;14.20;99.90
34099;DHT22;20374;49.474;10.944;2022-10-16T05:05:31;14.20;99.90
34099;DHT22;20374;49.474;10.944;2022-10-16T05:07:57;14.20;99.90
34099;DHT22;20374;49.474;10.944;2022-10-16T05:10:23;14.20;99.90
34099;DHT22;20374;49.474;10.944;2022-10-16T05:12:49;14.20;99.90
34099;DHT22;20374;49.474;10.944;2022-10-16T05:15:15;14.20;99.90
34099;DHT22;20374;49.474;10.944;2022-10-16T05:17:41;14.20;99.90
34099;DHT22;20374;49.474;10.944;2022-10-16T05:20:07;14.20;99.90
34099;DHT22;20374;49.474;10.944;2022-10-16T05:22:36;14.20;99.90
34099;DHT22;20374;49.474;10.944;2022-10-16T05:25:02;14.10;99.90
34099;DHT22;20374;49.474;10.944;2022-10-16T05:27:28;14.10;99.90
34099;DHT22;20374;49.474;10.944;2022-10-16T05:29:54;14.10;99.90
34099;DHT22;20374;49.474;10.944;2022-10-16T05:32:20;14.10;99.90
34099;DHT22;20374;49.474;10.944;2022-10-16T05:34:46;14.10;99.90
34099;DHT22;20374;49.474;10.944;2022-10-16T05:37:12;14.10;99.90
34099;DHT22;20374;49.474;10.944;2022-10-16T05:39:38;14.10;99.90
34099;DHT22;20374;49.474;10.944;2022-10-16T05:42:05;14.10;99.90
34099;DHT22;20374;49.474;10.944;2022-10-16T05:44:31;14.10;99.90
34099;DHT22;20374;49.474;10.944;2022-10-16T05:46:58;14.10;99.90
34099;DHT22;20374;49.474;10.944;2022-10-16T05:49:23;14.10;99.90
34099;DHT22;20374;49.474;10.944;2022-10-16T05:51:50;14.20;99.90
34099;DHT22;20374;49.474;10.944;2022-10-16T05:54:15;14.20;99.90
34099;DHT22;20374;49.474;10.944;2022-10-16T05:56:41;14.20;99.90
34099;DHT22;20374;49.474;10.944;2022-10-16T05:59:07;14.20;99.90
34099;DHT22;20374;49.474;10.944;2022-10-16T06:01:33;14.20;99.90
34099;DHT22;20374;49.474;10.944;2022-10-16T06:03:59;14.20;99.90
34099;DHT22;20374;49.474;10.944;2022-10-16T06:06:26;14.20;99.90
34099;DHT22;20374;49.474;10.944;2022-10-16T06:08:54;14.20;99.90
34099;DHT22;20374;49.474;10.944;2022-10-16T06:11:23;14.20;99.90
34099;DHT22;20374;49.474;10.944;2022-10-16T06:13:50;14.30;99.90
34099;DHT22;20374;49.474;10.944;2022-10-16T06:16:17;14.20;99.90
34099;DHT22;20374;49.474;10.944;2022-10-16T06:18:43;14.30;99.90
34099;DHT22;20374;49.474;10.944;2022-10-16T06:21:16;14.30;99.90
34099;DHT22;20374;49.474;10.944;2022-10-16T06:23:42;14.40;99.90
34099;DHT22;20374;49.474;10.944;2022-10-16T06:26:13;14.50;99.90
34099;DHT22;20374;49.474;10.944;2022-10-16T06:28:40;14.70;99.90
34099;DHT22;20374;49.474;10.944;2022-10-16T06:31:07;14.70;99.90
34099;DHT22;20374;49.474;10.944;2022-10-16T06:33:34;14.70;99.90
34099;DHT22;20374;49.474;10.944;2022-10-16T06:36:34;14.70;99.90
34099;DHT22;20374;49.474;10.944;2022-10-16T06:38:53;14.70;99.90
34099;DHT22;20374;49.474;10.944;2022-10-16T06:41:21;14.80;99.90
34099;DHT22;20374;49.474;10.944;2022-10-16T06:43:48;15.00;99.90
34099;DHT22;20374;49.474;10.944;2022-10-16T06:46:17;15.10;99.90
34099;DHT22;20374;49.474;10.944;2022-10-16T06:48:43;15.10;99.90
34099;DHT22;20374;49.474;10.944;2022-10-16T06:51:14;15.00;99.90
34099;DHT22;20374;49.474;10.944;2022-10-16T06:53:46;15.00;99.90
34099;DHT22;20374;49.474;10.944;2022-10-16T06:58:48;14.80;99.90
34099;DHT22;20374;49.474;10.944;2022-10-16T07:01:15;14.80;99.90
34099;DHT22;20374;49.474;10.944;2022-10-16T07:03:43;14.70;99.90
34099;DHT22;20374;49.474;10.944;2022-10-16T07:06:11;14.80;99.90
34099;DHT22;20374;49.474;10.944;2022-10-16T07:08:39;14.70;99.90
34099;DHT22;20374;49.474;10.944;2022-10-16T07:11:10;14.70;99.90
34099;DHT22;20374;49.474;10.944;2022-10-16T07:13:38;14.70;99.90
34099;DHT22;20374;49.474;10.944;2022-10-16T07:16:12;14.60;99.90
34099;DHT22;20374;49.474;10.944;2022-10-16T07:18:39;14.70;99.90
34099;DHT22;20374;49.474;10.944;2022-10-16T07:21:11;14.70;99.90
34099;DHT22;20374;49.474;10.944;2022-10-16T07:23:38;14.70;99.90
34099;DHT22;20374;49.474;10.944;2022-10-16T07:26:05;14.70;99.90
34099;DHT22;20374;49.474;10.944;2022-10-16T07:28:31;14.80;99.90
34099;DHT22;20374;49.474;10.944;2022-10-16T07:31:02;14.80;99.90
34099;DHT22;20374;49.474;10.944;2022-10-16T07:33:28;14.80;99.90
34099;DHT22;20374;49.474;10.944;2022-10-16T07:35:55;14.90;99.90
34099;DHT22;20374;49.474;10.944;2022-10-16T07:38:21;14.90;99.90
34099;DHT22;20374;49.474;10.944;2022-10-16T07:40:55;15.00;99.90
34099;DHT22;20374;49.474;10.944;2022-10-16T07:43:20;15.10;99.90
34099;DHT22;20374;49.474;10.944;2022-10-16T07:45:50;15.20;99.90
34099;DHT22;20374;49.474;10.944;2022-10-16T07:48:16;15.20;99.90
34099;DHT22;20374;49.474;10.944;2022-10-16T07:50:43;15.30;99.90
34099;DHT22;20374;49.474;10.944;2022-10-16T07:53:09;15.20;99.90
34099;DHT22;20374;49.474;10.944;2022-10-16T07:55:35;15.20;99.90
34099;DHT22;20374;49.474;10.944;2022-10-16T07:58:01;15.20;99.90
34099;DHT22;20374;49.474;10.944;2022-10-16T08:00:27;15.20;99.90
34099;DHT22;20374;49.474;10.944;2022-10-16T08:02:53;15.20;99.90
34099;DHT22;20374;49.474;10.944;2022-10-16T08:05:19;15.30;99.90
34099;DHT22;20374;49.474;10.944;2022-10-16T08:07:51;15.30;99.90
34099;DHT22;20374;49.474;10.944;2022-10-16T08:10:18;15.30;99.90
34099;DHT22;20374;49.474;10.944;2022-10-16T08:12:44;15.30;99.90
34099;DHT22;20374;49.474;10.944;2022-10-16T08:15:10;15.30;99.90
34099;DHT22;20374;49.474;10.944;2022-10-16T08:17:39;15.30;99.90
34099;DHT22;20374;49.474;10.944;2022-10-16T08:20:05;15.30;99.90
34099;DHT22;20374;49.474;10.944;2022-10-16T08:22:31;15.30;99.90
34099;DHT22;20374;49.474;10.944;2022-10-16T08:24:57;15.40;99.90
34099;DHT22;20374;49.474;10.944;2022-10-16T08:27:23;15.50;99.90
34099;DHT22;20374;49.474;10.944;2022-10-16T08:29:49;15.50;99.90
34099;DHT22;20374;49.474;10.944;2022-10-16T08:32:15;15.60;99.90
34099;DHT22;20374;49.474;10.944;2022-10-16T08:34:41;15.70;99.90
34099;DHT22;20374;49.474;10.944;2022-10-16T08:37:07;15.70;99.90
34099;DHT22;20374;49.474;10.944;2022-10-16T08:39:36;15.80;99.90
34099;DHT22;20374;49.474;10.944;2022-10-16T08:47:35;16.00;99.90
34099;DHT22;20374;49.474;10.944;2022-10-16T08:50:18;16.10;99.90
34099;DHT22;20374;49.474;10.944;2022-10-16T08:52:46;16.20;99.90
34099;DHT22;20374;49.474;10.944;2022-10-16T08:57:51;16.30;99.90
34099;DHT22;20374;49.474;10.944;2022-10-16T09:00:17;16.40;99.90
34099;DHT22;20374;49.474;10.944;2022-10-16T09:02:52;16.40;99.90
34099;DHT22;20374;49.474;10.944;2022-10-16T09:05:44;16.40;99.90
34099;DHT22;20374;49.474;10.944;2022-10-16T09:11:06;16.50;99.90
34099;DHT22;20374;49.474;10.944;2022-10-16T09:13:58;16.70;99.90
34099;DHT22;20374;49.474;10.944;2022-10-16T09:16:52;16.80;99.90
34099;DHT22;20374;49.474;10.944;2022-10-16T09:19:33;16.80;99.90
34099;DHT22;20374;49.474;10.944;2022-10-16T09:22:12;16.90;99.90
34099;DHT22;20374;49.474;10.944;2022-10-16T09:24:39;16.90;99.90
34099;DHT22;20374;49.474;10.944;2022-10-16T09:27:10;16.90;99.90
34099;DHT22;20374;49.474;10.944;2022-10-16T09:29:36;16.80;99.90
34099;DHT22;20374;49.474;10.944;2022-10-16T09:32:16;16.70;99.90
34099;DHT22;20374;49.474;10.944;2022-10-16T09:34:47;16.70;99.90
34099;DHT22;20374;49.474;10.944;2022-10-16T09:37:17;16.60;99.90
34099;DHT22;20374;49.474;10.944;2022-10-16T09:39:54;16.60;99.90
34099;DHT22;20374;49.474;10.944;2022-10-16T09:42:24;16.60;99.90
34099;DHT22;20374;49.474;10.944;2022-10-16T09:44:52;16.50;99.90
34099;DHT22;20374;49.474;10.944;2022-10-16T09:47:27;16.50;99.90
34099;DHT22;20374;49.474;10.944;2022-10-16T09:50:19;16.50;99.90
34099;DHT22;20374;49.474;10.944;2022-10-16T09:52:43;16.50;99.90
34099;DHT22;20374;49.474;10.944;2022-10-16T09:55:17;16.50;99.90
34099;DHT22;20374;49.474;10.944;2022-10-16T09:57:50;16.60;99.90
34099;DHT22;20374;49.474;10.944;2022-10-16T10:00:17;16.70;99.90
34099;DHT22;20374;49.474;10.944;2022-10-16T10:02:44;16.80;99.90
34099;DHT22;20374;49.474;10.944;2022-10-16T10:05:22;16.90;99.90
34099;DHT22;20374;49.474;10.944;2022-10-16T10:07:58;17.00;99.90
34099;DHT22;20374;49.474;10.944;2022-10-16T10:10:30;17.10;99.90
34099;DHT22;20374;49.474;10.944;2022-10-16T10:12:57;17.20;99.90
34099;DHT22;20374;49.474;10.944;2022-10-16T10:15:24;17.30;99.90
34099;DHT22;20374;49.474;10.944;2022-10-16T10:17:59;17.50;99.90
34099;DHT22;20374;49.474;10.944;2022-10-16T10:20:29;17.60;99.90
34099;DHT22;20374;49.474;10.944;2022-10-16T10:22:57;17.70;99.90
34099;DHT22;20374;49.474;10.944;2022-10-16T10:25:47;17.70;99.90
34099;DHT22;20374;49.474;10.944;2022-10-16T10:28:54;17.70;99.90
34099;DHT22;20374;49.474;10.944;2022-10-16T10:31:45;17.70;99.90
34099;DHT22;20374;49.474;10.944;2022-10-16T10:34:26;17.80;99.90
34099;DHT22;20374;49.474;10.944;2022-10-16T10:37:15;17.80;99.90
34099;DHT22;20374;49.474;10.944;2022-10-16T10:40:14;17.80;99.90
34099;DHT22;20374;49.474;10.944;2022-10-16T10:52:59;18.10;99.90
34099;DHT22;20374;49.474;10.944;2022-10-16T10:58:44;18.20;99.90
34099;DHT22;20374;49.474;10.944;2022-10-16T11:01:18;18.20;99.90
34099;DHT22;20374;49.474;10.944;2022-10-16T11:06:40;18.30;99.90
34099;DHT22;20374;49.474;10.944;2022-10-16T11:14:29;18.40;99.90
34099;DHT22;20374;49.474;10.944;2022-10-16T11:17:49;18.40;99.90
34099;DHT22;20374;49.474;10.944;2022-10-16T11:20:23;18.40;99.90
34099;DHT22;20374;49.474;10.944;2022-10-16T11:22:54;18.50;99.90
34099;DHT22;20374;49.474;10.944;2022-10-16T11:25:28;18.60;99.90
34099;DHT22;20374;49.474;10.944;2022-10-16T11:28:27;18.70;99.90
34099;DHT22;20374;49.474;10.944;2022-10-16T11:36:35;19.00;99.90
34099;DHT22;20374;49.474;10.944;2022-10-16T11:57:33;19.50;99.90
34099;DHT22;20374;49.474;10.944;2022-10-16T12:03:56;19.50;99.90
34099;DHT22;20374;49.474;10.944;2022-10-16T12:09:53;19.60;99.90
34099;DHT22;20374;49.474;10.944;2022-10-16T12:15:49;19.90;99.90
34099;DHT22;20374;49.474;10.944;2022-10-16T12:18:25;20.10;99.90
34099;DHT22;20374;49.474;10.944;2022-10-16T12:20:57;20.30;99.90
34099;DHT22;20374;49.474;10.944;2022-10-16T12:23:24;20.40;99.90
34099;DHT22;20374;49.474;10.944;2022-10-16T12:25:56;20.50;99.90
34099;DHT22;20374;49.474;10.944;2022-10-16T12:28:26;20.80;99.90
34099;DHT22;20374;49.474;10.944;2022-10-16T12:31:07;20.80;99.90
34099;DHT22;20374;49.474;10.944;2022-10-16T12:33:39;20.80;99.90
34099;DHT22;20374;49.474;10.944;2022-10-16T12:36:28;21.00;99.90
34099;DHT22;20374;49.474;10.944;2022-10-16T12:38:55;21.00;99.90
34099;DHT22;20374;49.474;10.944;2022-10-16T12:41:35;21.00;99.90
34099;DHT22;20374;49.474;10.944;2022-10-16T12:44:20;20.90;99.90
34099;DHT22;20374;49.474;10.944;2022-10-16T12:46:46;20.70;99.90
34099;DHT22;20374;49.474;10.944;2022-10-16T12:51:39;20.50;99.90
34099;DHT22;20374;49.474;10.944;2022-10-16T12:54:18;20.50;99.90
34099;DHT22;20374;49.474;10.944;2022-10-16T12:59:57;20.40;99.90
34099;DHT22;20374;49.474;10.944;2022-10-16T13:27:13;21.70;99.90
34099;DHT22;20374;49.474;10.944;2022-10-16T13:29:41;21.80;99.90
34099;DHT22;20374;49.474;10.944;2022-10-16T13:32:10;21.80;99.90
34099;DHT22;20374;49.474;10.944;2022-10-16T13:34:48;21.80;99.90
34099;DHT22;20374;49.474;10.944;2022-10-16T13:37:23;21.70;99.90
34099;DHT22;20374;49.474;10.944;2022-10-16T13:39:49;21.60;99.90
34099;DHT22;20374;49.474;10.944;2022-10-16T13:42:29;21.50;99.90
34099;DHT22;20374;49.474;10.944;2022-10-16T13:44:56;21.70;99.90
34099;DHT22;20374;49.474;10.944;2022-10-16T13:47:25;21.80;99.90
34099;DHT22;20374;49.474;10.944;2022-10-16T13:52:27;21.80;99.90
34099;DHT22;20374;49.474;10.944;2022-10-16T13:54:53;21.90;99.90
34099;DHT22;20374;49.474;10.944;2022-10-16T13:57:22;22.00;99.90
34099;DHT22;20374;49.474;10.944;2022-10-16T13:59:48;22.10;99.90
34099;DHT22;20374;49.474;10.944;2022-10-16T14:04:51;22.50;99.90
34099;DHT22;20374;49.474;10.944;2022-10-16T14:07:30;22.60;99.90
34099;DHT22;20374;49.474;10.944;2022-10-16T14:10:02;22.90;99.90
34099;DHT22;20374;49.474;10.944;2022-10-16T14:12:28;23.20;99.90
34099;DHT22;20374;49.474;10.944;2022-10-16T14:14:55;23.60;99.90
34099;DHT22;20374;49.474;10.944;2022-10-16T14:17:28;24.00;99.90
34099;DHT22;20374;49.474;10.944;2022-10-16T14:20:00;24.00;99.90
34099;DHT22;20374;49.474;10.944;2022-10-16T14:22:30;24.40;99.90
34099;DHT22;20374;49.474;10.944;2022-10-16T14:24:58;24.60;99.90
34099;DHT22;20374;49.474;10.944;2022-10-16T14:27:34;24.50;99.90
34099;DHT22;20374;49.474;10.944;2022-10-16T14:30:17;24.50;99.90
34099;DHT22;20374;49.474;10.944;2022-10-16T14:33:00;24.50;99.90
34099;DHT22;20374;49.474;10.944;2022-10-16T14:35:37;24.50;99.90
34099;DHT22;20374;49.474;10.944;2022-10-16T14:38:05;23.80;99.90
34099;DHT22;20374;49.474;10.944;2022-10-16T14:40:34;23.20;99.90
34099;DHT22;20374;49.474;10.944;2022-10-16T14:43:02;22.60;99.90
34099;DHT22;20374;49.474;10.944;2022-10-16T14:45:31;22.30;99.90
34099;DHT22;20374;49.474;10.944;2022-10-16T14:48:01;21.80;99.90
34099;DHT22;20374;49.474;10.944;2022-10-16T14:50:28;21.50;99.90
34099;DHT22;20374;49.474;10.944;2022-10-16T14:52:54;21.20;99.90
34099;DHT22;20374;49.474;10.944;2022-10-16T14:55:20;21.00;99.90
34099;DHT22;20374;49.474;10.944;2022-10-16T14:57:47;20.90;99.90
34099;DHT22;20374;49.474;10.944;2022-10-16T15:00:22;20.90;99.90
34099;DHT22;20374;49.474;10.944;2022-10-16T15:02:49;20.90;99.90
34099;DHT22;20374;49.474;10.944;2022-10-16T15:05:24;20.90;99.90
34099;DHT22;20374;49.474;10.944;2022-10-16T15:07:52;20.80;99.90
34099;DHT22;20374;49.474;10.944;2022-10-16T15:10:23;20.80;99.90
34099;DHT22;20374;49.474;10.944;2022-10-16T15:12:49;20.60;99.90
34099;DHT22;20374;49.474;10.944;2022-10-16T15:15:43;20.60;99.90
34099;DHT22;20374;49.474;10.944;2022-10-16T15:18:09;20.50;99.90
34099;DHT22;20374;49.474;10.944;2022-10-16T15:20:37;20.40;99.90
34099;DHT22;20374;49.474;10.944;2022-10-16T15:23:15;20.20;99.90
34099;DHT22;20374;49.474;10.944;2022-10-16T15:25:53;20.00;99.90
34099;DHT22;20374;49.474;10.944;2022-10-16T15:28:20;19.90;99.90
34099;DHT22;20374;49.474;10.944;2022-10-16T15:30:48;19.80;99.90
34099;DHT22;20374;49.474;10.944;2022-10-16T15:33:23;19.70;99.90
34099;DHT22;20374;49.474;10.944;2022-10-16T15:39:16;19.60;99.90
34099;DHT22;20374;49.474;10.944;2022-10-16T15:41:50;19.60;99.90
34099;DHT22;20374;49.474;10.944;2022-10-16T15:44:42;19.50;99.90
34099;DHT22;20374;49.474;10.944;2022-10-16T15:47:09;19.40;99.90
34099;DHT22;20374;49.474;10.944;2022-10-16T15:49:35;19.30;99.90
34099;DHT22;20374;49.474;10.944;2022-10-16T15:52:03;19.20;99.90
34099;DHT22;20374;49.474;10.944;2022-10-16T15:54:29;19.10;99.90
34099;DHT22;20374;49.474;10.944;2022-10-16T15:56:55;19.10;99.90
34099;DHT22;20374;49.474;10.944;2022-10-16T15:59:21;19.00;99.90
34099;DHT22;20374;49.474;10.944;2022-10-16T16:01:47;18.90;99.90
34099;DHT22;20374;49.474;10.944;2022-10-16T16:04:13;19.00;99.90
34099;DHT22;20374;49.474;10.944;2022-10-16T16:06:39;18.90;99.90
34099;DHT22;20374;49.474;10.944;2022-10-16T16:09:11;18.80;99.90
34099;DHT22;20374;49.474;10.944;2022-10-16T16:11:37;18.70;99.90
34099;DHT22;20374;49.474;10.944;2022-10-16T16:14:05;18.60;99.90
34099;DHT22;20374;49.474;10.944;2022-10-16T16:16:32;18.60;99.90
34099;DHT22;20374;49.474;10.944;2022-10-16T16:19:03;18.60;99.90
34099;DHT22;20374;49.474;10.944;2022-10-16T16:21:29;18.50;99.90
34099;DHT22;20374;49.474;10.944;2022-10-16T16:23:55;18.50;99.90
34099;DHT22;20374;49.474;10.944;2022-10-16T16:26:26;18.50;99.90
34099;DHT22;20374;49.474;10.944;2022-10-16T16:28:53;18.40;99.90
34099;DHT22;20374;49.474;10.944;2022-10-16T16:31:20;18.40;99.90
34099;DHT22;20374;49.474;10.944;2022-10-16T16:33:49;18.40;99.90
34099;DHT22;20374;49.474;10.944;2022-10-16T16:36:17;18.30;99.90
34099;DHT22;20374;49.474;10.944;2022-10-16T16:38:44;18.30;99.90
34099;DHT22;20374;49.474;10.944;2022-10-16T16:41:15;18.20;99.90
34099;DHT22;20374;49.474;10.944;2022-10-16T16:43:41;18.20;99.90
34099;DHT22;20374;49.474;10.944;2022-10-16T16:46:08;18.20;99.90
34099;DHT22;20374;49.474;10.944;2022-10-16T16:48:35;18.10;99.90
34099;DHT22;20374;49.474;10.944;2022-10-16T16:51:14;18.10;99.90
34099;DHT22;20374;49.474;10.944;2022-10-16T16:53:49;18.10;99.90
34099;DHT22;20374;49.474;10.944;2022-10-16T16:56:15;18.10;99.90
34099;DHT22;20374;49.474;10.944;2022-10-16T16:58:44;18.10;99.90
34099;DHT22;20374;49.474;10.944;2022-10-16T17:01:10;18.10;99.90
34099;DHT22;20374;49.474;10.944;2022-10-16T17:03:36;18.00;99.90
34099;DHT22;20374;49.474;10.944;2022-10-16T17:06:07;18.00;99.90
34099;DHT22;20374;49.474;10.944;2022-10-16T17:08:35;18.00;99.90
34099;DHT22;20374;49.474;10.944;2022-10-16T17:11:01;18.00;99.90
34099;DHT22;20374;49.474;10.944;2022-10-16T17:13:29;18.00;99.90
34099;DHT22;20374;49.474;10.944;2022-10-16T17:15:56;18.00;99.90
34099;DHT22;20374;49.474;10.944;2022-10-16T17:18:23;18.10;99.90
34099;DHT22;20374;49.474;10.944;2022-10-16T17:20:50;18.10;99.90
34099;DHT22;20374;49.474;10.944;2022-10-16T17:23:18;18.10;99.90
34099;DHT22;20374;49.474;10.944;2022-10-16T17:25:44;18.10;99.90
34099;DHT22;20374;49.474;10.944;2022-10-16T17:28:12;18.10;99.90
34099;DHT22;20374;49.474;10.944;2022-10-16T17:30:42;18.00;99.90
34099;DHT22;20374;49.474;10.944;2022-10-16T17:33:09;18.00;99.90
34099;DHT22;20374;49.474;10.944;2022-10-16T17:35:41;18.00;99.90
34099;DHT22;20374;49.474;10.944;2022-10-16T17:38:07;17.90;99.90
34099;DHT22;20374;49.474;10.944;2022-10-16T17:40:33;17.80;99.90
34099;DHT22;20374;49.474;10.944;2022-10-16T17:42:59;17.80;99.90